Terminal Aerodrome Forecast
Issued by NWS

Home | Current Version | Previous Version | Text Only | Print | Product List | Glossary On
Versions: 1 2 3 4 5 6 7 8 9 10 11 12 13 14 15 16 17 18
000
FTUS43 KDVN 310700 AAB
TAFCID
TAF AMD
KCID 310703Z 3107/0106 34018G24KT P6SM BKN035
     FM310900 34020G30KT P6SM SCT050
     FM312100 36010KT P6SM SKC=

USA.gov is the U.S. government's official web portal to all federal, state and local government web resources and services.